Ira, Texas
Current Conditions -  °F | °C
As of 1:35 PM on Thursday 23 Oct 2014 (Local Time) from KSNK Reporting Station
Overcast Overcast  
Wind Chill: 64°   Ceiling: 900
Heat Index: 64°   Visibility: 10mi
Dew Point: 60°   Wind: 7mph
Humidity: 86%   Direction: 220°SW
Pressure: 30.17"   Gusts: NA
Location:  32.58°N, 101°W
Report Text: KSNK 231835Z AUTO 22006KT 10SM OVC009 18/15 A3017 RMK AO2 T01780154
Loading
Personal Weather Stations






























Interactive Weather Map
Tropical Storm Tracking
New forecast layout! Learn more

10-Day Weather Forecast

Advertisements
Track Severe Weather on mobile